Tiempo atmosférico en la estación meteorológica de Larraga, Navarra (375 m.)



Fecha
DESCASC
Temp. máxima en grados centígrados (hora)
DESCASC
Temp. mínima en grados centígrados (hora)
DESCASC
Temp. media en grados centígrados
DESCASC
Racha de viento máxima en m/sg (hora)
DESCASC
Velocidad máxima media en intervalos de 10 minutos(hora)
DESCASC
Precipitaciones diarias en mm
DESCASC
Precipitaciones de 00:00 a 06:00 en mm
DESCASC
Precipitaciones de 06:00 a 12:00 en mm
DESCASC
Precipitaciones de 12:00 a 18:00 en mm
DESCASC
Precipitaciones de 18:00 a 24:00 en mm
DESCASC
10-07-2020 26.1 (15:30) 16.5 (06:50) 21.3 13.06 (18:40) 9.17 (18:50) 0 0 0 0 0
09-07-2020 34.6 (17:50) 18.6 (06:20) 26.6 11.39 (19:40) 6.94 (19:40) 0 0 0 0 0
08-07-2020 33.1 (18:30) 12.7 (05:40) 22.9 9.17 (13:40) 6.11 (12:30) 0 0 0 0 0
07-07-2020 27.6 (17:00) 11.8 (04:10) 19.7 11.39 (16:20) 8.06 (19:00) 0 0 0 0 0
06-07-2020 25.7 (13:50) 13.8 (00:00) 19.8 14.17 (17:20) 8.33 (17:00) 0 0 0 0 0
05-07-2020 31.7 (15:40) 13.6 (00:00) 22.7 13.89 (19:20) 8.89 (21:20) 0 0 0 0 0
04-07-2020 28.8 (17:40) 10.5 (00:00) 19.6 10.28 (14:20) 6.67 (21:30) 0 0 0 0 0
03-07-2020 22.4 (17:30) 13.2 (23:40) 17.8 13.61 (20:20) 8.33 (15:40) 0 0 0 0 0
02-07-2020 24.7 (14:10) 15.2 (00:00) 20 13.33 (19:00) 9.17 (17:10) 0 0 0 0 0
01-07-2020 29.4 (14:20) 17.9 (00:00) 23.6 15.28 (19:40) 10 (19:40) 0 0 0 0 0
30-06-2020 32.7 (17:40) 12.4 (00:00) 22.6 7.22 (15:20) 4.72 (00:10) 0.4 0 0 0 0.4
29-06-2020 26.4 (15:00) 16.3 (00:00) 21.3 11.39 (19:20) 8.33 (16:00) 0 0 0 0 0
28-06-2020 31 (16:20) 15.8 (00:00) 23.4 14.72 (21:20) 8.61 (20:50) 0 0 0 0 0
27-06-2020 30.3 (16:50) 14.8 (00:00) 22.5 9.72 (19:20) 6.11 (23:30) 0 0 0 0 0
26-06-2020 31.3 (16:40) 15.6 (00:00) 23.4 13.33 (11:20) 9.44 (16:50) 5 0 0 0 5
25-06-2020 -- (--) -- (--) -- -- (--) -- (--) -- -- -- 0 7
24-06-2020 -- (--) -- (--) -- -- (--) -- (--) -- 0 0 0 --
23-06-2020 34.2 (18:20) 13.2 (00:00) 23.7 7.78 (12:50) 4.72 (13:10) 0 0 0 0 0
22-06-2020 29.8 (16:40) 12.5 (00:00) 21.1 12.22 (19:20) 7.22 (17:50) 0 0 0 0 0
21-06-2020 29 (14:50) 12 (00:00) 20.5 13.61 (18:20) 8.33 (19:40) 0 0 0 0 0
20-06-2020 30 (18:10) 11.5 (00:00) 20.8 10.83 (18:20) 7.5 (18:50) 0 0 0 0 0
19-06-2020 27.8 (17:40) 10.1 (00:00) 18.9 11.39 (19:20) 7.78 (20:40) 0 0 0 0 0
18-06-2020 23.2 (16:00) 10.6 (00:00) 16.9 9.44 (20:20) 6.67 (21:10) 0 0 0 0 0
17-06-2020 21.8 (17:10) 12 (00:00) 16.9 9.72 (20:50) 6.94 (20:10) 0.8 0 0 0.4 0.4
16-06-2020 22.8 (14:20) 13.2 (00:00) 18 14.72 (17:20) 9.17 (15:50) 3.4 0 0 0.4 3
15-06-2020 24.4 (14:50) 11.1 (00:00) 17.8 10.83 (14:30) 7.22 (20:40) 0 0 0 0 0
14-06-2020 25 (16:30) 11.2 (00:00) 18.1 10 (22:10) 6.67 (22:10) 0 0 0 0 0
13-06-2020 23.1 (16:20) 10.3 (00:00) 16.7 11.94 (10:50) 6.67 (11:10) 0 0 0 0 0
12-06-2020 20.7 (16:40) 5.4 (00:00) 13.1 11.67 (17:50) 8.33 (16:10) 1.6 0.2 0 1.2 0.2

Gráficas

Temp. máximas Temp. mínimas Temp. medias Precipitaciones Rachas de viento máximas Velocidades máximas media en intervalos de 10 minutos

Datos horarios

Fecha y hora oficial Temperatura (ºC) Velocidad del viento (km/h) Dirección del viento Racha (km/h) Dirección de racha Precipitación (mm) Presión (hPa) Tendencia (hPa) Humedad (%)
2020-07-11 23:00:00 20.2 15 Norte 25 Noroeste 0 -- -- 67
2020-07-11 22:00:00 21.3 14 Norte 32 Norte 0 -- -- 64
2020-07-11 21:00:00 23.5 21 Norte 36 Norte 0 -- -- 56
2020-07-11 20:00:00 25.8 21 Norte 35 Norte 0 -- -- 48
2020-07-11 19:00:00 26.9 23 Norte 34 Norte 0 -- -- 44
2020-07-11 18:00:00 28 22 Norte 32 Norte 0 -- -- 42
2020-07-11 17:00:00 28 22 Norte 31 Nordeste 0 -- -- 40
2020-07-11 16:00:00 27.8 20 Norte 38 Norte 0 -- -- 40
2020-07-11 15:00:00 26.7 18 Norte 32 Norte 0 -- -- 42
2020-07-11 14:00:00 25.5 19 Norte 31 Norte 0 -- -- 43
2020-07-11 13:00:00 23.9 17 Norte 28 Noroeste 0 -- -- 46
2020-07-11 12:00:00 23.2 15 Norte 28 Norte 0 -- -- 49
2020-07-11 11:00:00 21.7 18 Norte 39 Noroeste 0 -- -- 53
2020-07-11 10:00:00 19.9 21 Norte 33 Norte 0 -- -- 59
2020-07-11 09:00:00 18.5 17 Noroeste 24 Noroeste 0 -- -- 63
2020-07-11 08:00:00 16.1 13 Noroeste 17 Oeste 0 -- -- 77
2020-07-11 07:00:00 14.1 11 Noroeste 17 Noroeste 0 -- -- 83
2020-07-11 06:00:00 14.2 11 Noroeste 17 Noroeste 0 -- -- 83
2020-07-11 05:00:00 14.1 10 Noroeste 19 Noroeste 0 -- -- 82
2020-07-11 04:00:00 15 12 Noroeste 20 Noroeste 0 -- -- 81
2020-07-11 03:00:00 15.6 12 Noroeste 20 Noroeste 0 -- -- 81
2020-07-11 02:00:00 16.3 13 Noroeste 24 Noroeste 0 -- -- 79
2020-07-11 01:00:00 17 13 Noroeste 23 Oeste 0 -- -- 75
2020-07-11 00:00:00 17.6 14 Noroeste 21 Oeste 0 -- -- 72
2020-07-10 23:00:00 17.8 16 Noroeste 22 Noroeste 0 -- -- 72
2020-07-10 22:00:00 18.3 18 Norte 32 Norte 0 -- -- 70
2020-07-10 21:00:00 19.3 24 Norte 38 Norte 0 -- -- 67
2020-07-10 20:00:00 20.4 32 Norte 44 Norte 0 -- -- 63
2020-07-10 19:00:00 21.6 32 Norte 47 Norte 0 -- -- 60
2020-07-10 18:00:00 23.9 29 Norte 43 Norte 0 -- -- 54
2020-07-10 17:00:00 25 29 Norte 42 Norte 0 -- -- 52
2020-07-10 16:00:00 25.1 26 Norte 41 Norte 0 -- -- 53
2020-07-10 15:00:00 25.7 24 Norte 36 Nordeste 0 -- -- 51
2020-07-10 14:00:00 25 24 Norte 38 Norte 0 -- -- 54
2020-07-10 13:00:00 24.9 21 Norte 32 Noroeste 0 -- -- 54
2020-07-10 12:00:00 23.5 16 Norte 30 Norte 0 -- -- 58
2020-07-10 11:00:00 23 20 Norte 30 Norte 0 -- -- 60
2020-07-10 10:00:00 22.1 16 Norte 26 Norte 0 -- -- 62
2020-07-10 09:00:00 20.5 15 Noroeste 23 Noroeste 0 -- -- 70
2020-07-10 08:00:00 17.8 13 Noroeste 18 Noroeste 0 -- -- 82
2020-07-10 07:00:00 16.5 10 Noroeste 14 Noroeste 0 -- -- 88
2020-07-10 06:00:00 17 8 Noroeste 15 Norte 0 -- -- 87
2020-07-10 05:00:00 18.4 9 Norte 24 Norte 0 -- -- 81
2020-07-10 04:00:00 18.8 16 Norte 24 Noroeste 0 -- -- 81
2020-07-10 03:00:00 18.9 16 Noroeste 33 Norte 0 -- -- 83
2020-07-10 02:00:00 19.6 14 Norte 24 Norte 0 -- -- 81
2020-07-10 01:00:00 20.1 15 Norte 29 Norte 0 -- -- 80
2020-07-10 00:00:00 20.7 21 Norte 32 Norte 0 -- -- 77
2020-07-09 23:00:00 21.9 19 Norte 30 Norte 0 -- -- 73
2020-07-09 22:00:00 23.7 15 Norte 26 Noroeste 0 -- -- 69
2020-07-09 21:00:00 26.5 17 Norte 30 Oeste 0 -- -- 60
2020-07-09 20:00:00 28.5 24 Oeste 41 Norte 0 -- -- 37
2020-07-09 19:00:00 34.3 6 Sur 25 Sudeste 0 -- -- 30
2020-07-09 18:00:00 34.5 15 Sudeste 30 Este 0 -- -- 32
2020-07-09 17:00:00 33.9 9 Sudeste 23 Sudeste 0 -- -- 32
2020-07-09 16:00:00 33.1 12 Este 27 Sudeste 0 -- -- 35
2020-07-09 15:00:00 32.1 10 Sudeste 22 Sudeste 0 -- -- 39
2020-07-09 14:00:00 29.9 6 Noroeste 16 Sudeste 0 -- -- 44
2020-07-09 13:00:00 29.5 7 Sudeste 22 Este 0 -- -- 45
2020-07-09 12:00:00 26.8 8 Norte 17 Noroeste 0 -- -- 53
2020-07-09 11:00:00 25 10 Norte 17 Noroeste 0 -- -- 59
2020-07-09 10:00:00 23.3 5 Este 27 Norte 0 -- -- 59
2020-07-09 09:00:00 20.2 13 Noroeste 22 Noroeste 0 -- -- 72
2020-07-09 08:00:00 18.9 10 Noroeste 19 Norte 0 -- -- 81
2020-07-09 07:00:00 18.6 6 Norte 12 Noroeste 0 -- -- 82
2020-07-09 06:00:00 18.9 5 Noroeste 15 Norte 0 -- -- 80
2020-07-09 05:00:00 19.5 5 Noroeste 13 Noroeste 0 -- -- 79
2020-07-09 04:00:00 19.5 11 Noroeste 15 Noroeste 0 -- -- 80
2020-07-09 03:00:00 20.8 9 Norte 19 Noroeste 0 -- -- 76
2020-07-09 02:00:00 21.2 13 Noroeste 23 Norte 0 -- -- 75
2020-07-09 01:00:00 22.4 16 Noroeste 24 Norte 0 -- -- 68
2020-07-09 00:00:00 23.7 12 Norte 26 Noroeste 0 -- -- 65
2020-07-08 23:00:00 24.4 16 Noroeste 26 Norte 0 -- -- 62
2020-07-08 22:00:00 26.2 19 Norte 31 Norte 0 -- -- 54
2020-07-08 21:00:00 29.1 15 Norte 24 Norte 0 -- -- 44
2020-07-08 20:00:00 30.8 15 Sudeste 33 Sur 0 -- -- 33
2020-07-08 19:00:00 32.7 18 Sudeste 27 Sur 0 -- -- 32
2020-07-08 18:00:00 32.8 7 Sudeste 21 Sudeste 0 -- -- 31
2020-07-08 17:00:00 31.9 13 Sudeste 26 Sur 0 -- -- 33
2020-07-08 16:00:00 32.1 17 Sudeste 27 Sur 0 -- -- 30
2020-07-08 15:00:00 30.4 15 Sudeste 26 Sudeste 0 -- -- 30
2020-07-08 14:00:00 30 15 Sudeste 33 Sudeste 0 -- -- 33
2020-07-08 13:00:00 27.7 19 Sudeste 32 Este 0 -- -- 42
2020-07-08 12:00:00 26.1 15 Sudeste 29 Sudeste 0 -- -- 47
2020-07-08 11:00:00 23.5 4 Noroeste 16 Norte 0 -- -- 52
2020-07-08 10:00:00 20.5 7 Norte 19 Norte 0 -- -- 59
2020-07-08 09:00:00 17.7 12 Norte 17 Norte 0 -- -- 70
2020-07-08 08:00:00 14.6 5 Noroeste 9 Noroeste 0 -- -- 80
2020-07-08 07:00:00 13 4 Noroeste 8 Oeste 0 -- -- 82
2020-07-08 06:00:00 13.2 5 Noroeste 11 Noroeste 0 -- -- 82
2020-07-08 05:00:00 13.1 6 Noroeste 13 Noroeste 0 -- -- 82
2020-07-08 04:00:00 14.1 10 Noroeste 17 Noroeste 0 -- -- 81
2020-07-08 03:00:00 14.4 15 Noroeste 19 Noroeste 0 -- -- 80
2020-07-08 02:00:00 15.3 7 Norte 22 Noroeste 0 -- -- 75
2020-07-08 01:00:00 16.2 8 Noroeste 24 Norte 0 -- -- 74
2020-07-08 00:00:00 18.1 13 Norte 25 Norte 0 -- -- 68
2020-07-07 23:00:00 19.4 21 Norte 31 Norte 0 -- -- 64
2020-07-07 22:00:00 20.9 19 Norte 35 Norte 0 -- -- 60
2020-07-07 21:00:00 23.3 26 Norte 36 Norte 0 -- -- 50
2020-07-07 20:00:00 25.3 23 Norte 40 Norte 0 -- -- 44
2020-07-07 19:00:00 25.9 29 Norte 41 Norte 0 -- -- 40
2020-07-07 18:00:00 26.9 28 Norte 39 Nordeste 0 -- -- 37
2020-07-07 17:00:00 27.6 24 Norte 41 Nordeste 0 -- -- 34
2020-07-07 16:00:00 27.2 22 Norte 34 Norte 0 -- -- 35
2020-07-07 15:00:00 26 21 Norte 33 Norte 0 -- -- 33
2020-07-07 14:00:00 25.1 23 Norte 33 Norte 0 -- -- 37
2020-07-07 13:00:00 23.5 21 Norte 33 Norte 0 -- -- 40
2020-07-07 12:00:00 22.4 20 Norte 32 Norte 0 -- -- 43
2020-07-07 11:00:00 20.6 21 Norte 33 Norte 0 -- -- 47
2020-07-07 10:00:00 18.8 17 Noroeste 34 Oeste 0 -- -- 56
2020-07-07 09:00:00 16.5 20 Noroeste 34 Oeste 0 -- -- 62
2020-07-07 08:00:00 14 18 Oeste 25 Oeste 0 -- -- 72
2020-07-07 07:00:00 12 15 Oeste 24 Oeste 0 -- -- 77
2020-07-07 06:00:00 12.5 20 Oeste 35 Oeste 0 -- -- 76
2020-07-07 05:00:00 12.5 24 Oeste 32 Oeste 0 -- -- 76
2020-07-07 04:00:00 12 15 Oeste 25 Oeste 0 -- -- 79
2020-07-07 03:00:00 12.2 15 Noroeste 21 Noroeste 0 -- -- 79
2020-07-07 02:00:00 12.3 12 Noroeste 17 Noroeste 0 -- -- 78
2020-07-07 01:00:00 12.7 4 Noroeste 13 Noroeste 0 -- -- 77
2020-07-07 00:00:00 13.8 4 Norte 17 Noroeste 0 -- -- 72
2020-07-06 23:00:00 13.9 12 Noroeste 26 Noroeste 0 -- -- 72
2020-07-06 22:00:00 16.5 21 Noroeste 33 Noroeste 0 -- -- 60
2020-07-06 21:00:00 19.1 26 Noroeste 38 Noroeste 0 -- -- 55
2020-07-06 20:00:00 20.8 21 Norte 40 Norte 0 -- -- 55
2020-07-06 19:00:00 22.3 24 Norte 43 Norte 0 -- -- 53
2020-07-06 18:00:00 22.2 25 Norte 51 Norte 0 -- -- 55
2020-07-06 17:00:00 23.9 30 Norte 41 Norte 0 -- -- 50
2020-07-06 16:00:00 24.3 21 Noroeste 44 Noroeste 0 -- -- 50
2020-07-06 15:00:00 24.5 24 Noroeste 41 Norte 0 -- -- 51
2020-07-06 14:00:00 25.3 26 Norte 45 Norte 0 -- -- 50
2020-07-06 13:00:00 24.6 27 Noroeste 41 Noroeste 0 -- -- 53
2020-07-06 12:00:00 23.3 27 Noroeste 41 Noroeste 0 -- -- 57
2020-07-06 11:00:00 22.6 26 Noroeste 38 Oeste 0 -- -- 59
2020-07-06 10:00:00 22.7 16 Noroeste 27 Noroeste 0 -- -- 62
2020-07-06 09:00:00 20.8 12 Noroeste 26 Noroeste 0 -- -- 67
2020-07-06 08:00:00 19.2 18 Noroeste 27 Oeste 0 -- -- 75
2020-07-06 07:00:00 16 4 Noroeste 17 Oeste 0 -- -- 83
2020-07-06 06:00:00 16.6 13 Noroeste 21 Noroeste 0 -- -- 82
2020-07-06 05:00:00 16.1 13 Noroeste 25 Oeste 0 -- -- 80
2020-07-06 04:00:00 16.6 16 Noroeste 26 Noroeste 0 -- -- 75
2020-07-06 03:00:00 17.4 15 Noroeste 24 Oeste 0 -- -- 67
2020-07-06 02:00:00 18 13 Norte 33 Noroeste 0 -- -- 65
2020-07-06 01:00:00 19.3 21 Noroeste 33 Noroeste 0 -- -- 61
2020-07-06 00:00:00 21.9 20 Norte 33 Norte 0 -- -- 56
2020-07-05 23:00:00 22.4 22 Norte 39 Norte 0 -- -- 52
2020-07-05 22:00:00 23 25 Norte 47 Noroeste 0 -- -- 50
2020-07-05 21:00:00 24.9 31 Norte 45 Norte 0 -- -- 45
2020-07-05 20:00:00 27.2 30 Norte 50 Norte 0 -- -- 41
2020-07-05 19:00:00 29.2 31 Norte 41 Norte 0 -- -- 39
2020-07-05 18:00:00 30.9 26 Norte 36 Norte 0 -- -- 35
2020-07-05 17:00:00 31.4 23 Norte 34 Norte 0 -- -- 32
2020-07-05 16:00:00 31.3 24 Norte 34 Norte 0 -- -- 31
2020-07-05 15:00:00 31.3 20 Norte 31 Norte 0 -- -- 30
2020-07-05 14:00:00 30.4 20 Norte 29 Norte 0 -- -- 31
2020-07-05 13:00:00 29.5 17 Norte 25 Norte 0 -- -- 34
2020-07-05 12:00:00 27.8 13 Norte 22 Norte 0 -- -- 37
2020-07-05 11:00:00 25.8 10 Noroeste 19 Noroeste 0 -- -- 38
2020-07-05 10:00:00 23.9 10 Noroeste 18 Noroeste 0 -- -- 42
2020-07-05 09:00:00 20 3 Noroeste 9 Noroeste 0 -- -- 50
2020-07-05 08:00:00 16.7 4 Norte 7 Noroeste 0 -- -- 59
2020-07-05 07:00:00 13.8 0 Calma 14 Norte 0 -- -- 68
2020-07-05 06:00:00 13.9 13 Noroeste 20 Norte 0 -- -- 70
2020-07-05 05:00:00 15.1 8 Norte 11 Norte 0 -- -- 62
2020-07-05 04:00:00 15.3 12 Noroeste 17 Noroeste 0 -- -- 64
2020-07-05 03:00:00 16.2 10 Noroeste 18 Noroeste 0 -- -- 58
2020-07-05 02:00:00 16.6 11 Noroeste 16 Noroeste 0 -- -- 59
2020-07-05 01:00:00 17 7 Noroeste 13 Noroeste 0 -- -- 51
2020-07-05 00:00:00 18.1 8 Noroeste 21 Noroeste 0 -- -- 43
2020-07-04 23:00:00 19.7 8 Noroeste 25 Norte 0 -- -- 37
2020-07-04 22:00:00 21.6 18 Norte 36 Norte 0 -- -- 35
2020-07-04 21:00:00 24.3 20 Norte 33 Norte 0 -- -- 32
2020-07-04 20:00:00 26.3 19 Norte 32 Norte 0 -- -- 33
2020-07-04 19:00:00 27.9 19 Norte 33 Norte 0 -- -- 31
2020-07-04 18:00:00 28.4 22 Norte 32 Norte 0 -- -- 29
2020-07-04 17:00:00 28.3 15 Nordeste 33 Norte 0 -- -- 30
2020-07-04 16:00:00 28.1 19 Norte 32 Norte 0 -- -- 29
2020-07-04 15:00:00 27.2 20 Norte 37 Norte 0 -- -- 33
2020-07-04 14:00:00 26.2 21 Norte 30 Nordeste 0 -- -- 33
2020-07-04 13:00:00 24.5 8 Norte 18 Nordeste 0 -- -- 35
2020-07-04 12:00:00 22.4 6 Norte 18 Noroeste 0 -- -- 41
2020-07-04 11:00:00 20 12 Noroeste 25 Noroeste 0 -- -- 48
2020-07-04 10:00:00 18.1 12 Noroeste 26 Noroeste 0 -- -- 53
2020-07-04 09:00:00 16.2 22 Oeste 28 Noroeste 0 -- -- 61
2020-07-04 08:00:00 13.4 19 Noroeste 27 Noroeste 0 -- -- 74
2020-07-04 07:00:00 11 14 Noroeste 28 Oeste 0 -- -- 82
2020-07-04 06:00:00 11.1 14 Oeste 27 Noroeste 0 -- -- 80
2020-07-04 05:00:00 10.8 10 Noroeste 24 Oeste 0 -- -- 80
2020-07-04 04:00:00 12 17 Noroeste 27 Noroeste 0 -- -- 75
2020-07-04 03:00:00 11.5 17 Noroeste 26 Oeste 0 -- -- 75
2020-07-04 02:00:00 12.3 14 Noroeste 34 Noroeste 0 -- -- 72
2020-07-04 01:00:00 11.9 13 Noroeste 18 Noroeste 0 -- -- 71
2020-07-04 00:00:00 13.6 12 Noroeste 25 Noroeste 0 -- -- 64
2020-07-03 23:00:00 14.5 17 Noroeste 31 Noroeste 0 -- -- 61
2020-07-03 22:00:00 16.4 19 Noroeste 36 Norte 0 -- -- 54
2020-07-03 21:00:00 18.6 26 Norte 49 Noroeste 0 -- -- 49
2020-07-03 20:00:00 20.3 26 Norte 41 Norte 0 -- -- 47
2020-07-03 19:00:00 21.2 29 Norte 44 Noroeste 0 -- -- 44
2020-07-03 18:00:00 22.1 23 Norte 42 Norte 0 -- -- 44
2020-07-03 17:00:00 22.1 25 Norte 40 Noroeste 0 -- -- 40
2020-07-03 16:00:00 21.7 28 Noroeste 41 Noroeste 0 -- -- 46
2020-07-03 15:00:00 21.6 28 Norte 40 Noroeste 0 -- -- 44
2020-07-03 14:00:00 21.4 22 Noroeste 39 Noroeste 0 -- -- 48
2020-07-03 13:00:00 20.8 26 Noroeste 39 Noroeste 0 -- -- 41
2020-07-03 12:00:00 20.2 23 Noroeste 41 Norte 0 -- -- 45
2020-07-03 11:00:00 19 23 Norte 40 Norte 0 -- -- 50
2020-07-03 10:00:00 18.6 15 Norte 24 Norte 0 -- -- 53
2020-07-03 09:00:00 17.1 15 Noroeste 27 Noroeste 0 -- -- 61
2020-07-03 08:00:00 15.6 9 Noroeste 18 Noroeste 0 -- -- 73
2020-07-03 07:00:00 14.7 12 Noroeste 16 Noroeste 0 -- -- 76
2020-07-03 06:00:00 14.8 11 Noroeste 27 Oeste 0 -- -- 77
2020-07-03 05:00:00 14.4 12 Noroeste 24 Oeste 0 -- -- 77
2020-07-03 04:00:00 14.9 14 Noroeste 26 Noroeste 0 -- -- 78
2020-07-03 03:00:00 15.4 15 Noroeste 23 Oeste 0 -- -- 75
2020-07-03 02:00:00 16.1 16 Noroeste 30 Noroeste 0 -- -- 69
2020-07-03 01:00:00 16.3 21 Noroeste 31 Noroeste 0 -- -- 68
2020-07-03 00:00:00 16.5 21 Noroeste 30 Noroeste 0 -- -- 66
2020-07-02 23:00:00 16.6 19 Noroeste 31 Norte 0 -- -- 67
2020-07-02 22:00:00 16.8 21 Norte 37 Norte 0 -- -- 67
2020-07-02 21:00:00 17.8 24 Norte 38 Norte 0 -- -- 64
2020-07-02 20:00:00 18.4 23 Norte 47 Norte 0 -- -- 64
2020-07-02 19:00:00 19.2 31 Noroeste 48 Noroeste 0 -- -- 60
2020-07-02 18:00:00 21.9 30 Norte 48 Noroeste 0 -- -- 53
2020-07-02 17:00:00 21.5 29 Norte 46 Norte 0 -- -- 56
2020-07-02 16:00:00 24.4 26 Noroeste 38 Norte 0 -- -- 50
2020-07-02 15:00:00 24.2 21 Norte 37 Noroeste 0 -- -- 50
2020-07-02 14:00:00 24.2 21 Norte 37 Norte 0 -- -- 49
2020-07-02 13:00:00 23.7 21 Norte 34 Noroeste 0 -- -- 51
2020-07-02 12:00:00 22.7 20 Norte 32 Norte 0 -- -- 54
2020-07-02 11:00:00 21.2 24 Norte 33 Norte 0 -- -- 60
2020-07-02 10:00:00 20.6 21 Norte 37 Norte 0 -- -- 62
2020-07-02 09:00:00 19.3 21 Norte 32 Norte 0 -- -- 66
2020-07-02 08:00:00 17.9 17 Norte 24 Norte 0 -- -- 74
2020-07-02 07:00:00 15.7 12 Noroeste 16 Noroeste 0 -- -- 86
2020-07-02 06:00:00 15.7 10 Noroeste 19 Noroeste 0 -- -- 86
2020-07-02 05:00:00 16.5 13 Noroeste 21 Noroeste 0 -- -- 83
2020-07-02 04:00:00 16.8 13 Noroeste 32 Noroeste 0 -- -- 82
2020-07-02 03:00:00 18.5 20 Norte 27 Norte 0 -- -- 73
2020-07-02 02:00:00 19 12 Noroeste 28 Noroeste 0 -- -- 69
2020-07-02 01:00:00 19.6 21 Noroeste 29 Norte 0 -- -- 67
2020-07-02 00:00:00 19.7 19 Noroeste 40 Noroeste 0 -- -- 66
2020-07-01 23:00:00 19.7 23 Noroeste 37 Noroeste 0 -- -- 66
2020-07-01 22:00:00 19.8 20 Norte 40 Norte 0 -- -- 69
2020-07-01 21:00:00 21 29 Norte 43 Norte 0 -- -- 65
2020-07-01 20:00:00 23 29 Norte 55 Norte 0 -- -- 60
2020-07-01 19:00:00 23.7 32 Norte 45 Norte 0 -- -- 59
2020-07-01 18:00:00 23.8 30 Norte 47 Norte 0 -- -- 59
2020-07-01 17:00:00 25.7 29 Norte 46 Norte 0 -- -- 55
2020-07-01 16:00:00 27.7 28 Norte 39 Norte 0 -- -- 51
2020-07-01 15:00:00 28.5 22 Norte 33 Norte 0 -- -- 51
2020-07-01 14:00:00 29.3 14 Norte 26 Norte 0 -- -- 49
2020-07-01 13:00:00 28.8 8 Este 20 Nordeste 0 -- -- 50
2020-07-01 12:00:00 26.6 6 Norte 14 Noroeste 0 -- -- 58
2020-07-01 11:00:00 25.3 10 Noroeste 15 Norte 0 -- -- 63
2020-07-01 10:00:00 24.6 6 Este 12 Nordeste 0 -- -- 64
2020-07-01 09:00:00 21.7 8 Norte 15 Norte 0 -- -- 79
2020-07-01 08:00:00 19.8 9 Noroeste 13 Noroeste 0 -- -- 87
2020-07-01 07:00:00 18 9 Noroeste 13 Norte 0 -- -- 91
2020-07-01 06:00:00 18.1 8 Noroeste 9 Noroeste 0 -- -- 89
2020-07-01 05:00:00 19.1 4 Noroeste 6 Noroeste 0 -- -- 87
2020-07-01 04:00:00 19.6 4 Oeste 12 Norte 0 -- -- 84
2020-07-01 03:00:00 20.3 10 Norte 14 Norte 0 -- -- 84
2020-07-01 02:00:00 21.1 2 Noroeste 22 Nordeste 0 -- -- 78
2020-07-01 01:00:00 21.9 13 Nordeste 20 Nordeste 0 -- -- 78
2020-07-01 00:00:00 22.1 9 Norte 17 Sudoeste 0.4 -- -- 69
2020-06-30 23:00:00 23.6 14 Sur 24 Sur 0 -- -- 61
2020-06-30 22:00:00 24.5 8 Sudeste 22 Nordeste 0 -- -- 55
2020-06-30 21:00:00 26.5 8 Sur 21 Sur 0 -- -- 45
2020-06-30 20:00:00 27.4 5 Nordeste 26 Sur 0 -- -- 45
2020-06-30 19:00:00 29.6 17 Sur 26 Sur 0 -- -- 39
2020-06-30 18:00:00 32.6 13 Sudeste 22 Este 0 -- -- 34
2020-06-30 17:00:00 32.2 6 Sudeste 24 Sur 0 -- -- 33
2020-06-30 16:00:00 31.1 9 Este 26 Sur 0 -- -- 36
2020-06-30 15:00:00 30.1 14 Sudeste 24 Sudeste 0 -- -- 41
2020-06-30 14:00:00 28.6 12 Sudeste 25 Sudeste 0 -- -- 40
2020-06-30 13:00:00 26.6 13 Este 23 Este 0 -- -- 50
2020-06-30 12:00:00 24.5 10 Sudeste 19 Sudeste 0 -- -- 58
2020-06-30 11:00:00 21.6 9 Norte 16 Noroeste 0 -- -- 61
2020-06-30 10:00:00 19.7 8 Norte 13 Noroeste 0 -- -- 62
2020-06-30 09:00:00 17.6 10 Noroeste 14 Noroeste 0 -- -- 73
2020-06-30 08:00:00 14.7 6 Noroeste 11 Noroeste 0 -- -- 84
2020-06-30 07:00:00 12.5 7 Noroeste 11 Noroeste 0 -- -- 90
2020-06-30 06:00:00 13.3 2 Sudoeste 8 Norte 0 -- -- 87
2020-06-30 05:00:00 14.2 5 Noroeste 11 Noroeste 0 -- -- 84
2020-06-30 04:00:00 14.2 5 Noroeste 14 Noroeste 0 -- -- 85
2020-06-30 03:00:00 14.1 9 Noroeste 19 Noroeste 0 -- -- 87
2020-06-30 02:00:00 14.5 13 Noroeste 20 Noroeste 0 -- -- 86
2020-06-30 01:00:00 16 13 Norte 26 Noroeste 0 -- -- 79
2020-06-30 00:00:00 16.7 16 Norte 23 Norte 0 -- -- 76
2020-06-29 23:00:00 17.2 15 Norte 27 Noroeste 0 -- -- 75
2020-06-29 22:00:00 18.4 13 Norte 28 Norte 0 -- -- 71
2020-06-29 21:00:00 20.4 20 Norte 39 Norte 0 -- -- 64
2020-06-29 20:00:00 22.3 22 Norte 41 Norte 0 -- -- 59
2020-06-29 19:00:00 23.6 24 Norte 35 Norte 0 -- -- 55
2020-06-29 18:00:00 24.9 24 Norte 37 Norte 0 -- -- 51
2020-06-29 17:00:00 25.5 25 Norte 37 Norte 0 -- -- 50
2020-06-29 16:00:00 25.5 30 Norte 40 Norte 0 -- -- 51
2020-06-29 15:00:00 26.4 22 Norte 37 Norte 0 -- -- 48
2020-06-29 14:00:00 25.9 19 Norte 32 Norte 0 -- -- 49
2020-06-29 13:00:00 24.9 19 Norte 32 Norte 0 -- -- 51
2020-06-29 12:00:00 24 18 Norte 28 Nordeste 0 -- -- 53
2020-06-29 11:00:00 22.8 19 Norte 28 Norte 0 -- -- 59
2020-06-29 10:00:00 21.6 19 Norte 32 Norte 0 -- -- 63
2020-06-29 09:00:00 20.3 21 Norte 29 Norte 0 -- -- 68
2020-06-29 08:00:00 18.8 15 Norte 23 Norte 0 -- -- 78
2020-06-29 07:00:00 16.4 8 Noroeste 12 Norte 0 -- -- 86
2020-06-29 06:00:00 17 9 Norte 16 Norte 0 -- -- 84
2020-06-29 05:00:00 17.6 5 Noroeste 9 Norte 0 -- -- 80
2020-06-29 04:00:00 17.6 8 Noroeste 16 Norte 0 -- -- 80
2020-06-29 03:00:00 18.6 12 Norte 18 Norte 0 -- -- 76
2020-06-29 02:00:00 19.1 12 Norte 24 Norte 0 -- -- 74
2020-06-29 01:00:00 19.4 17 Norte 28 Norte 0 -- -- 72
2020-06-29 00:00:00 19.7 22 Norte 32 Norte 0 -- -- 71
2020-06-28 23:00:00 20.4 22 Norte 39 Norte 0 -- -- 67
2020-06-28 22:00:00 21.5 28 Norte 53 Norte 0 -- -- 61
2020-06-28 21:00:00 24 30 Norte 45 Norte 0 -- -- 54
2020-06-28 20:00:00 26.5 28 Norte 41 Norte 0 -- -- 47
2020-06-28 19:00:00 28.1 26 Norte 40 Norte 0 -- -- 45
2020-06-28 18:00:00 29.1 19 Norte 33 Norte 0 -- -- 44
2020-06-28 17:00:00 30.8 16 Noroeste 29 Norte 0 -- -- 40
2020-06-28 16:00:00 30.5 13 Noroeste 22 Oeste 0 -- -- 40
2020-06-28 15:00:00 30.6 9 Oeste 23 Noroeste 0 -- -- 38
2020-06-28 14:00:00 29.1 15 Oeste 24 Oeste 0 -- -- 41
2020-06-28 13:00:00 27 6 Noroeste 15 Noroeste 0 -- -- 51
2020-06-28 12:00:00 25.4 6 Noroeste 15 Norte 0 -- -- 54
2020-06-28 11:00:00 23.9 8 Norte 16 Noroeste 0 -- -- 59
2020-06-28 10:00:00 22.3 13 Norte 21 Norte 0 -- -- 67
2020-06-28 09:00:00 20.5 11 Norte 16 Noroeste 0 -- -- 73
2020-06-28 08:00:00 18.1 6 Noroeste 9 Noroeste 0 -- -- 84
2020-06-28 07:00:00 16.3 8 Noroeste 12 Noroeste 0 -- -- 89
2020-06-28 06:00:00 15.9 10 Noroeste 14 Noroeste 0 -- -- 89
2020-06-28 05:00:00 16.2 10 Noroeste 12 Noroeste 0 -- -- 87
2020-06-28 04:00:00 17.7 5 Noroeste 18 Norte 0 -- -- 80
2020-06-28 03:00:00 19.2 14 Norte 30 Norte 0 -- -- 71
2020-06-28 02:00:00 20.3 17 Norte 28 Norte 0 -- -- 69
2020-06-28 01:00:00 21 15 Norte 29 Norte 0 -- -- 69
2020-06-28 00:00:00 21.1 13 Norte 33 Norte 0 -- -- 70
2020-06-27 23:00:00 22.6 18 Norte 27 Norte 0 -- -- 64
2020-06-27 22:00:00 23.4 17 Norte 26 Norte 0 -- -- 61
2020-06-27 21:00:00 25.3 17 Norte 28 Norte 0 -- -- 58
2020-06-27 20:00:00 26.5 19 Norte 35 Norte 0 -- -- 54
2020-06-27 19:00:00 28 20 Norte 28 Norte 0 -- -- 49
2020-06-27 18:00:00 29.1 11 Norte 17 Norte 0 -- -- 39
2020-06-27 17:00:00 29.7 10 Noroeste 18 Noroeste 0 -- -- 40
2020-06-27 16:00:00 28.5 10 Noroeste 20 Oeste 0 -- -- 40
2020-06-27 15:00:00 29.7 8 Sudoeste 23 Oeste 0 -- -- 39
2020-06-27 14:00:00 27.5 8 Sudeste 19 Sudeste 0 -- -- 47
2020-06-27 13:00:00 26 6 Oeste 13 Norte 0 -- -- 50
2020-06-27 12:00:00 24.1 5 Noroeste 9 Noroeste 0 -- -- 59
2020-06-27 11:00:00 22.4 3 Oeste 7 Oeste 0 -- -- 68
2020-06-27 10:00:00 20.1 4 Noroeste 14 Noroeste 0 -- -- 73
2020-06-27 09:00:00 18 9 Noroeste 14 Noroeste 0 -- -- 86
2020-06-27 08:00:00 16.2 4 Noroeste 8 Noroeste 0 -- -- 90
2020-06-27 07:00:00 14.9 2 Noroeste 12 Oeste 0 -- -- 93
2020-06-27 06:00:00 15 10 Noroeste 13 Noroeste 0 -- -- 94
2020-06-27 05:00:00 15.4 6 Noroeste 17 Noroeste 0 -- -- 95
2020-06-27 04:00:00 16 8 Noroeste 11 Noroeste 0 -- -- 94
2020-06-27 03:00:00 16.6 8 Noroeste 18 Noroeste 0 -- -- 94
2020-06-27 02:00:00 17.2 10 Norte 20 Norte 0 -- -- 92
2020-06-27 01:00:00 17.8 10 Norte 15 Noroeste 0 -- -- 91
2020-06-27 00:00:00 18.4 11 Norte 13 Noroeste 0 -- -- 90
2020-06-26 23:00:00 19.1 5 Noroeste 23 Norte 0 -- -- 87
2020-06-26 22:00:00 20.4 15 Norte 23 Norte 0.4 -- -- 81
2020-06-26 21:00:00 20.7 6 Sudeste 36 Sur 1.8 -- -- 80
2020-06-26 20:00:00 23.8 27 Sudeste 39 Sudeste 0 -- -- 56
2020-06-26 19:00:00 23.7 12 Noroeste 38 Sudeste 2.8 -- -- 58
2020-06-26 18:00:00 29.4 22 Sudeste 44 Sudeste 0 -- -- 38
2020-06-26 17:00:00 30.7 30 Sudeste 45 Sudeste 0 -- -- 33
2020-06-26 16:00:00 30.4 16 Sur 32 Sudeste 0 -- -- 35
2020-06-26 15:00:00 29.6 23 Sudeste 38 Sudeste 0 -- -- 36
2020-06-26 14:00:00 29.7 27 Sudeste 36 Sudeste 0 -- -- 36
2020-06-26 13:00:00 27.9 24 Sudeste 43 Sudeste 0 -- -- 44
2020-06-26 12:00:00 26.4 28 Sudeste 48 Sudeste 0 -- -- 46
2020-06-26 11:00:00 24.1 25 Sudeste 36 Sudeste 0 -- -- 56
2020-06-26 10:00:00 22 19 Sudeste 38 Sudeste 0 -- -- 70
2020-06-26 09:00:00 20.3 21 Sudeste 29 Este 0 -- -- 81
2020-06-26 08:00:00 16.8 8 Noroeste 13 Noroeste 0 -- -- 93
2020-06-26 07:00:00 15.6 8 Noroeste 13 Noroeste 0 -- -- 95
2020-06-26 06:00:00 15.7 8 Noroeste 13 Noroeste 0 -- -- 95
2020-06-26 05:00:00 16.2 6 Norte 11 Norte 0 -- -- 94
2020-06-26 04:00:00 16.4 7 Norte 11 Noroeste 0 -- -- 94
2020-06-26 03:00:00 16.4 7 Norte 13 Noroeste 0 -- -- 95
2020-06-26 02:00:00 17 5 Norte 8 Noroeste 0 -- -- 94
2020-06-26 01:00:00 17.6 7 Noroeste 12 Noroeste 0 -- -- 92
2020-06-26 00:00:00 18.3 4 Oeste 18 Nordeste 0 -- -- 90
2020-06-25 23:00:00 19 6 Este 31 Norte 0 -- -- 85
2020-06-25 22:00:00 19.7 6 Noroeste 23 Sudeste 0.2 -- -- 87
2020-06-25 21:00:00 19.8 11 Norte 31 Nordeste 0.4 -- -- 88
2020-06-25 20:00:00 19.4 17 Noroeste 54 Oeste 1 -- -- 86
2020-06-25 19:00:00 20.4 10 Oeste 38 Sudeste 5.4 -- -- 74
2020-06-25 18:00:00 29.4 18 Noroeste 26 Noroeste 0 -- -- 42
2020-06-25 17:00:00 30.3 4 Noroeste 21 Nordeste 0 -- -- 37
2020-06-25 16:00:00 28.6 12 Norte 22 Este 0 -- -- 45
2020-06-25 15:00:00 28.1 7 Norte 21 Noroeste 0 -- -- 44
2020-06-25 14:00:00 29.4 12 Oeste 24 Oeste 0 -- -- 42
2020-06-25 13:00:00 29.7 7 Sudeste 24 Sur 0 -- -- 42
2020-06-25 12:00:00 27.5 13 Sudeste 30 Sudeste 0 -- -- 47
2020-06-25 11:00:00 -- -- -- -- -- -- -- -- --
2020-06-25 10:00:00 -- -- -- -- -- -- -- -- --
2020-06-25 09:00:00 -- -- -- -- -- -- -- -- --
2020-06-25 08:00:00 -- -- -- -- -- -- -- -- --
2020-06-25 07:00:00 -- -- -- -- -- -- -- -- --
2020-06-25 06:00:00 -- -- -- -- -- -- -- -- --
2020-06-25 05:00:00 -- -- -- -- -- -- -- -- --
2020-06-25 04:00:00 -- -- -- -- -- -- -- -- --
2020-06-25 03:00:00 -- -- -- -- -- -- -- -- --
2020-06-25 02:00:00 -- -- -- -- -- -- -- -- --
2020-06-25 01:00:00 -- -- -- -- -- -- -- -- --
2020-06-25 00:00:00 -- -- -- -- -- -- -- -- --
2020-06-24 23:00:00 -- -- -- -- -- -- -- -- --
2020-06-24 22:00:00 -- -- -- -- -- -- -- -- --
2020-06-24 21:00:00 28.2 29 Este 45 Este 0 -- -- 38
2020-06-24 20:00:00 31.4 11 Este 21 Este 0 -- -- 34
2020-06-24 19:00:00 33.5 14 Este 32 Sudeste 0 -- -- 30
2020-06-24 18:00:00 33.8 8 Este 28 Sudeste 0 -- -- 33
2020-06-24 17:00:00 33.2 8 Sudeste 26 Sudeste 0 -- -- 33
2020-06-24 16:00:00 31.3 21 Sudeste 27 Sudeste 0 -- -- 39
2020-06-24 15:00:00 31.2 11 Sur 23 Sudeste 0 -- -- 37
2020-06-24 14:00:00 31.7 19 Sudeste 30 Sudeste 0 -- -- 37
2020-06-24 13:00:00 30.3 14 Sudeste 27 Sur 0 -- -- 40
2020-06-24 12:00:00 28.8 14 Sudeste 27 Sudeste 0 -- -- 43
2020-06-24 11:00:00 26.6 9 Sudeste 21 Sudeste 0 -- -- 50
2020-06-24 10:00:00 25 12 Sudeste 19 Sudeste 0 -- -- 53
2020-06-24 09:00:00 22.4 3 Sudeste 9 Noroeste 0 -- -- 63
2020-06-24 08:00:00 19.8 5 Noroeste 11 Este 0 -- -- 76
2020-06-24 07:00:00 20 5 Este 18 Sudeste 0 -- -- 71
2020-06-24 06:00:00 19.5 6 Sudeste 14 Sudeste 0 -- -- 73
2020-06-24 05:00:00 18.8 3 Sudeste 10 Sudoeste 0 -- -- 75
2020-06-24 04:00:00 18.9 4 Noroeste 15 Sudeste 0 -- -- 73
2020-06-24 03:00:00 21.9 11 Este 15 Este 0 -- -- 64
2020-06-24 02:00:00 22.3 6 Nordeste 22 Este 0 -- -- 59
2020-06-24 01:00:00 21.9 14 Este 20 Este 0 -- -- 61
2020-06-24 00:00:00 22.9 4 Sudoeste 13 Norte 0 -- -- 55
2020-06-23 23:00:00 26 9 Noroeste 10 Noroeste 0 -- -- 52
2020-06-23 22:00:00 29.4 0 Calma 7 Este 0 -- -- 40
2020-06-23 21:00:00 31.9 4 Este -- -- 0 -- -- 32
2020-06-23 20:00:00 32.5 3 Sudeste 18 Sudeste 0 -- -- 34
2020-06-23 19:00:00 33.8 9 Sudeste 23 Sur 0 -- -- 30
2020-06-23 18:00:00 34 10 Sudeste 18 Sudeste 0 -- -- 26
2020-06-23 17:00:00 33.4 7 Sudeste 22 Sudeste 0 -- -- 27
2020-06-23 16:00:00 32.6 13 Sur 26 Sudeste 0 -- -- 30
2020-06-23 15:00:00 31.6 11 Sur 24 Sur 0 -- -- 32
2020-06-23 14:00:00 29.9 10 Sudeste 26 Sudeste 0 -- -- 40
2020-06-23 13:00:00 28.5 11 Sudeste 28 Sudeste 0 -- -- 44
2020-06-23 12:00:00 26.9 16 Sudeste 27 Sudeste 0 -- -- 49
2020-06-23 11:00:00 24.6 12 Sudeste 21 Sur 0 -- -- 55
2020-06-23 10:00:00 22.5 7 Nordeste 12 Nordeste 0 -- -- 59
2020-06-23 09:00:00 19.3 7 Norte 11 Norte 0 -- -- 69
2020-06-23 08:00:00 15.5 8 Norte 13 Noroeste 0 -- -- 82
2020-06-23 07:00:00 13.4 8 Noroeste 10 Noroeste 0 -- -- 84
2020-06-23 06:00:00 13.4 6 Noroeste 13 Noroeste 0 -- -- 86
2020-06-23 05:00:00 13.8 10 Noroeste 14 Norte 0 -- -- 85
2020-06-23 04:00:00 14.4 11 Noroeste 17 Noroeste 0 -- -- 80
2020-06-23 03:00:00 15.1 8 Noroeste 13 Noroeste 0 -- -- 80
2020-06-23 02:00:00 16.3 6 Noroeste 14 Noroeste 0 -- -- 74
2020-06-23 01:00:00 17.4 10 Noroeste 21 Norte 0 -- -- 74
2020-06-23 00:00:00 19 15 Noroeste 29 Noroeste 0 -- -- 66
2020-06-22 23:00:00 19.8 21 Noroeste 35 Norte 0 -- -- 66
2020-06-22 22:00:00 22 24 Norte 34 Norte 0 -- -- 55
2020-06-22 21:00:00 24.6 18 Norte 36 Norte 0 -- -- 51
2020-06-22 20:00:00 26.4 21 Norte 44 Norte 0 -- -- 44
2020-06-22 19:00:00 28.3 23 Norte 36 Norte 0 -- -- 36
2020-06-22 18:00:00 29.3 22 Norte 36 Norte 0 -- -- 33
2020-06-22 17:00:00 29.7 22 Norte 33 Norte 0 -- -- 29
2020-06-22 16:00:00 28.7 19 Nordeste 30 Nordeste 0 -- -- 31
2020-06-22 15:00:00 27.6 21 Norte 33 Norte 0 -- -- 31
2020-06-22 14:00:00 26.8 20 Norte 28 Norte 0 -- -- 35
2020-06-22 13:00:00 24.8 18 Nordeste 33 Norte 0 -- -- 44
2020-06-22 12:00:00 23 19 Norte 33 Norte 0 -- -- 52
2020-06-22 11:00:00 21.3 18 Norte 29 Norte 0 -- -- 58
2020-06-22 10:00:00 20.1 17 Norte 27 Norte 0 -- -- 64
2020-06-22 09:00:00 19.1 13 Norte 22 Norte 0 -- -- 68
2020-06-22 08:00:00 16.5 2 Sudoeste 10 Noroeste 0 -- -- 81
2020-06-22 07:00:00 13.4 7 Noroeste 13 Noroeste 0 -- -- 89
2020-06-22 06:00:00 13 6 Noroeste 9 Noroeste 0 -- -- 86
2020-06-22 05:00:00 15 5 Noroeste 6 Noroeste 0 -- -- 79
2020-06-22 04:00:00 15.9 0 Calma 13 Norte 0 -- -- 74
2020-06-22 03:00:00 15.6 8 Noroeste 21 Oeste 0 -- -- 75
2020-06-22 02:00:00 16.4 15 Noroeste 26 Oeste 0 -- -- 70
2020-06-22 01:00:00 16.5 13 Oeste 32 Noroeste 0 -- -- 67
2020-06-22 00:00:00 17.6 18 Noroeste 31 Noroeste 0 -- -- 63
2020-06-21 23:00:00 18.7 13 Noroeste 33 Norte 0 -- -- 60
2020-06-21 22:00:00 20.5 17 Norte 36 Norte 0 -- -- 54
2020-06-21 21:00:00 22.7 24 Norte 40 Norte 0 -- -- 48
2020-06-21 20:00:00 24.7 26 Norte 42 Norte 0 -- -- 41
2020-06-21 19:00:00 26.3 29 Norte 49 Norte 0 -- -- 37
2020-06-21 18:00:00 27.9 25 Norte 48 Norte 0 -- -- 33
2020-06-21 17:00:00 28.5 26 Norte 38 Norte 0 -- -- 31
2020-06-21 16:00:00 28.8 24 Norte 44 Noroeste 0 -- -- 29
2020-06-21 15:00:00 28.9 18 Noroeste 37 Norte 0 -- -- 32
2020-06-21 14:00:00 28.5 20 Norte 31 Norte 0 -- -- 30
2020-06-21 13:00:00 27.5 14 Norte 30 Noroeste 0 -- -- 31
2020-06-21 12:00:00 26.9 15 Norte 26 Norte 0 -- -- 34
2020-06-21 11:00:00 25.1 14 Norte 22 Norte 0 -- -- 36
2020-06-21 10:00:00 21.4 3 Noroeste 8 Noroeste 0 -- -- 48
2020-06-21 09:00:00 18.1 7 Noroeste 9 Noroeste 0 -- -- 62
2020-06-21 08:00:00 15.6 3 Noroeste 12 Noroeste 0 -- -- 74
2020-06-21 07:00:00 13 5 Noroeste 14 Norte 0 -- -- 82
2020-06-21 06:00:00 12.4 9 Noroeste 12 Norte 0 -- -- 83
2020-06-21 05:00:00 14.6 3 Oeste 9 Noroeste 0 -- -- 75
2020-06-21 04:00:00 14.7 8 Noroeste 10 Noroeste 0 -- -- 73
2020-06-21 03:00:00 14.9 9 Noroeste 14 Noroeste 0 -- -- 75
2020-06-21 02:00:00 15.3 12 Noroeste 17 Noroeste 0 -- -- 72
2020-06-21 01:00:00 18.2 13 Norte 22 Norte 0 -- -- 69
2020-06-21 00:00:00 19.2 18 Norte 28 Norte 0 -- -- 67
2020-06-20 23:00:00 20.3 14 Norte 26 Norte 0 -- -- 59
2020-06-20 22:00:00 21.6 22 Norte 36 Norte 0 -- -- 59
2020-06-20 21:00:00 23.9 21 Norte 33 Norte 0 -- -- 52
2020-06-20 20:00:00 26 19 Norte 36 Norte 0 -- -- 49
2020-06-20 19:00:00 27.4 25 Norte 39 Norte 0 -- -- 46
2020-06-20 18:00:00 29.7 6 Norte 21 Norte 0 -- -- 31
2020-06-20 17:00:00 28.8 4 Noroeste 16 Noroeste 0 -- -- 35
2020-06-20 16:00:00 28 8 Noroeste 21 Oeste 0 -- -- 36
2020-06-20 15:00:00 26.5 4 Nordeste 15 Noroeste 0 -- -- 43
2020-06-20 14:00:00 25 4 Sudoeste 18 Sudeste 0 -- -- 48
2020-06-20 13:00:00 23.9 6 Sudeste 18 Este 0 -- -- 53
2020-06-20 12:00:00 22.1 6 Sudoeste 12 Sur 0 -- -- 61
2020-06-20 11:00:00 20.1 6 Norte 13 Norte 0 -- -- 59
2020-06-20 10:00:00 18.6 9 Norte 13 Norte 0 -- -- 62
2020-06-20 09:00:00 16.2 8 Noroeste 13 Noroeste 0 -- -- 71
2020-06-20 08:00:00 13.5 9 Noroeste 12 Noroeste 0 -- -- 86
2020-06-20 07:00:00 11.5 9 Noroeste 14 Noroeste 0 -- -- 88
2020-06-20 06:00:00 11.9 6 Noroeste 8 Noroeste 0 -- -- 86
2020-06-20 05:00:00 11.8 6 Noroeste 9 Noroeste 0 -- -- 88
2020-06-20 04:00:00 12.5 8 Noroeste 10 Noroeste 0 -- -- 87
2020-06-20 03:00:00 13.7 4 Noroeste 8 Noroeste 0 -- -- 82
2020-06-20 02:00:00 14.3 7 Noroeste 13 Noroeste 0 -- -- 80
2020-06-20 01:00:00 14.8 12 Noroeste 17 Noroeste 0 -- -- 80
2020-06-20 00:00:00 16.2 12 Norte 26 Norte 0 -- -- 77
2020-06-19 23:00:00 17.2 17 Norte 32 Norte 0 -- -- 73
2020-06-19 22:00:00 18.4 23 Norte 38 Norte 0 -- -- 68
2020-06-19 21:00:00 20.2 25 Norte 41 Norte 0 -- -- 63
2020-06-19 20:00:00 22.7 23 Norte 41 Norte 0 -- -- 56
2020-06-19 19:00:00 24 25 Norte 36 Norte 0 -- -- 52
2020-06-19 18:00:00 27.4 16 Norte 29 Norte 0 -- -- 42
2020-06-19 17:00:00 27.6 8 Nordeste 17 Sur 0 -- -- 35
2020-06-19 16:00:00 26.7 7 Sur 22 Sur 0 -- -- 38
2020-06-19 15:00:00 26.4 7 Sur 22 Sudeste 0 -- -- 38
2020-06-19 14:00:00 25.1 14 Sudeste 25 Sudeste 0 -- -- 41
2020-06-19 13:00:00 24 13 Sudeste 28 Sudeste 0 -- -- 50
2020-06-19 12:00:00 22 15 Sudeste 28 Sudeste 0 -- -- 55
2020-06-19 11:00:00 20.3 10 Sudeste 19 Sudeste 0 -- -- 57
2020-06-19 10:00:00 16.8 9 Noroeste 18 Noroeste 0 -- -- 64
2020-06-19 09:00:00 15 12 Noroeste 17 Noroeste 0 -- -- 73
2020-06-19 08:00:00 12.1 7 Noroeste 12 Noroeste 0 -- -- 87
2020-06-19 07:00:00 10.1 8 Noroeste 11 Noroeste 0 -- -- 91
2020-06-19 06:00:00 10.7 7 Noroeste 9 Oeste 0 -- -- 87
2020-06-19 05:00:00 10.9 4 Noroeste 9 Oeste 0 -- -- 85
2020-06-19 04:00:00 10.7 8 Noroeste 10 Noroeste 0 -- -- 87
2020-06-19 03:00:00 11.6 2 Oeste 8 Noroeste 0 -- -- 84
2020-06-19 02:00:00 12 2 Oeste 15 Noroeste 0 -- -- 82
2020-06-19 01:00:00 12.9 13 Noroeste 17 Noroeste 0 -- -- 81
2020-06-19 00:00:00 14.2 14 Norte 31 Norte 0 -- -- 74
2020-06-18 23:00:00 15.4 16 Norte 30 Norte 0 -- -- 69
2020-06-18 22:00:00 16.5 19 Norte 34 Norte 0 -- -- 65
2020-06-18 21:00:00 18.8 20 Norte 34 Norte 0 -- -- 58
2020-06-18 20:00:00 20.1 19 Norte 31 Norte 0 -- -- 51
2020-06-18 19:00:00 21.2 17 Norte 29 Norte 0 -- -- 48
2020-06-18 18:00:00 21.7 17 Norte 30 Norte 0 -- -- 46
2020-06-18 17:00:00 22.9 10 Norte 23 Norte 0 -- -- 44
2020-06-18 16:00:00 23.2 17 Noroeste 26 Noroeste 0 -- -- 40
2020-06-18 15:00:00 21.7 9 Norte 30 Oeste 0 -- -- 42
2020-06-18 14:00:00 21 9 Norte 19 Nordeste 0 -- -- 45
2020-06-18 13:00:00 19.9 9 Norte 21 Noroeste 0 -- -- 47
2020-06-18 12:00:00 18.1 9 Norte 20 Noroeste 0 -- -- 51
2020-06-18 11:00:00 16 8 Norte 15 Nordeste 0 -- -- 64
2020-06-18 10:00:00 13.8 9 Norte 14 Norte 0 -- -- 80
2020-06-18 09:00:00 13.4 10 Norte 19 Norte 0 -- -- 75
2020-06-18 08:00:00 12.9 10 Norte 15 Norte 0 -- -- 76
2020-06-18 07:00:00 12.3 6 Norte 14 Noroeste 0 -- -- 79
2020-06-18 06:00:00 11.3 5 Noroeste 9 Noroeste 0 -- -- 86
2020-06-18 05:00:00 10.8 6 Noroeste 11 Noroeste 0 -- -- 90
2020-06-18 04:00:00 11 5 Noroeste 10 Noroeste 0 -- -- 87
2020-06-18 03:00:00 11.5 6 Noroeste 10 Noroeste 0 -- -- 86
2020-06-18 02:00:00 12.4 12 Noroeste 18 Noroeste 0 -- -- 80
2020-06-18 01:00:00 13.2 11 Norte 24 Norte 0 -- -- 74
2020-06-18 00:00:00 13.3 14 Norte 22 Norte 0 -- -- 73
2020-06-17 23:00:00 13.8 15 Norte 27 Norte 0 -- -- 71
2020-06-17 22:00:00 14.4 21 Norte 32 Norte 0 -- -- 69
2020-06-17 21:00:00 15.8 22 Norte 35 Norte 0 -- -- 65
2020-06-17 20:00:00 17.6 23 Norte 34 Nordeste 0 -- -- 59
2020-06-17 19:00:00 17.8 19 Norte 35 Norte 0.4 -- -- 66
2020-06-17 18:00:00 19.6 15 Norte 30 Norte 0 -- -- 50
2020-06-17 17:00:00 21 6 Noroeste 19 Noroeste 0 -- -- 41
2020-06-17 16:00:00 20.6 6 Noroeste 14 Oeste 0 -- -- 44
2020-06-17 15:00:00 18.7 5 Oeste 35 Oeste 0.4 -- -- 50
2020-06-17 14:00:00 18 13 Norte 25 Noroeste 0 -- -- 63
2020-06-17 13:00:00 18.7 4 Sur 13 Sur 0 -- -- 50
2020-06-17 12:00:00 18.2 6 Noroeste 14 Norte 0 -- -- 55
2020-06-17 11:00:00 16.4 9 Oeste 16 Oeste 0 -- -- --
2020-06-17 10:00:00 15.2 5 Noroeste 15 Oeste 0 -- -- --
2020-06-17 09:00:00 13.5 4 Oeste 9 Noroeste 0 -- -- --
2020-06-17 08:00:00 12.8 7 Noroeste 10 Noroeste 0 -- -- --
2020-06-17 07:00:00 12.1 3 Noroeste 5 Sur 0 -- -- --
2020-06-17 06:00:00 12.2 3 Sur 6 Sur 0 -- -- --
2020-06-17 05:00:00 12.1 2 Norte 6 Nordeste 0 -- -- --
2020-06-17 04:00:00 12.2 4 Noroeste 9 Noroeste 0 -- -- --
2020-06-17 03:00:00 12 5 Noroeste 6 Noroeste 0 -- -- --
2020-06-17 02:00:00 12.1 6 Norte 15 Noroeste 0 -- -- --
2020-06-17 01:00:00 12.8 7 Oeste 9 Oeste 0 -- -- --
2020-06-17 00:00:00 13.2 0 Calma 8 Norte 0 -- -- --
2020-06-16 23:00:00 13.5 5 Norte 15 Noroeste 0 -- -- --
2020-06-16 22:00:00 14 4 Norte 19 Noroeste 0.6 -- -- --
2020-06-16 21:00:00 14.1 19 Noroeste 30 Oeste 2 -- -- --
2020-06-16 20:00:00 16.1 12 Oeste 19 Oeste 0.2 -- -- --
2020-06-16 19:00:00 15.5 10 Noroeste 24 Noroeste 0.2 -- -- --
2020-06-16 18:00:00 16.1 14 Nordeste 53 Norte 0.4 -- -- --
2020-06-16 17:00:00 17.4 22 Norte 47 Norte 0 -- -- --
2020-06-16 16:00:00 18.5 33 Norte 49 Noroeste 0 -- -- --
2020-06-16 15:00:00 22.1 13 Noroeste 21 Noroeste 0 -- -- --
2020-06-16 14:00:00 22.2 8 Noroeste 18 Oeste 0 -- -- --
2020-06-16 13:00:00 21 5 Noroeste 16 Nordeste 0 -- -- --
2020-06-16 12:00:00 20.5 8 Norte 24 Noroeste 0 -- -- --
2020-06-16 11:00:00 18.9 11 Norte 19 Noroeste 0 -- -- --
2020-06-16 10:00:00 17.2 8 Norte 14 Noroeste 0 -- -- --
2020-06-16 09:00:00 15.2 2 Oeste 7 Noroeste 0 -- -- --
2020-06-16 08:00:00 14.2 0 Calma 8 Noroeste 0 -- -- --
2020-06-16 07:00:00 13.5 5 Noroeste 8 Noroeste 0 -- -- --
2020-06-16 06:00:00 13.6 3 Noroeste 4 Noroeste 0 -- -- --
2020-06-16 05:00:00 13.5 0 Calma 6 Oeste 0 -- -- --
2020-06-16 04:00:00 13.8 3 Oeste 16 Norte 0 -- -- --
2020-06-16 03:00:00 14.3 10 Norte 17 Norte 0 -- -- --
2020-06-16 02:00:00 14.6 14 Norte 23 Norte 0 -- -- --
2020-06-16 01:00:00 15 14 Noroeste 24 Norte 0 -- -- --
2020-06-16 00:00:00 15.4 17 Noroeste 31 Norte 0 -- -- --
2020-06-15 23:00:00 16.1 18 Norte 33 Norte 0 -- -- --
2020-06-15 22:00:00 16.9 23 Norte 38 Norte 0 -- -- --
2020-06-15 21:00:00 18.3 23 Norte 39 Norte 0 -- -- --
2020-06-15 20:00:00 19.7 22 Norte 35 Norte 0 -- -- --
2020-06-15 19:00:00 21 23 Norte 37 Norte 0 -- -- --
2020-06-15 18:00:00 22.1 21 Norte 31 Nordeste 0 -- -- --
2020-06-15 17:00:00 23.2 21 Noroeste 33 Noroeste 0 -- -- --
2020-06-15 16:00:00 23.8 19 Noroeste 37 Noroeste 0 -- -- --
2020-06-15 15:00:00 23.3 15 Noroeste 39 Oeste 0 -- -- --
2020-06-15 14:00:00 22.9 10 Oeste 35 Oeste 0 -- -- --
2020-06-15 13:00:00 21.9 13 Oeste 27 Oeste 0 -- -- --
2020-06-15 12:00:00 19.1 4 Noroeste 14 Noroeste 0 -- -- --
2020-06-15 11:00:00 17.2 4 Noroeste 11 Norte 0 -- -- --
2020-06-15 10:00:00 16.6 6 Norte 11 Norte 0 -- -- --
2020-06-15 09:00:00 15.6 5 Noroeste 9 Oeste 0 -- -- --
2020-06-15 08:00:00 12.5 5 Noroeste 8 Noroeste 0 -- -- --
2020-06-15 07:00:00 11.1 4 Noroeste 9 Noroeste 0 -- -- --
2020-06-15 06:00:00 11.4 2 Oeste 10 Noroeste 0 -- -- --
2020-06-15 05:00:00 12.1 8 Noroeste 12 Noroeste 0 -- -- --
2020-06-15 04:00:00 12.7 6 Noroeste 13 Norte 0 -- -- --
2020-06-15 03:00:00 13.7 10 Norte 18 Noroeste 0 -- -- --
2020-06-15 02:00:00 13.9 15 Noroeste 22 Norte 0 -- -- --
2020-06-15 01:00:00 14.1 12 Norte 27 Norte 0 -- -- --
2020-06-15 00:00:00 15.5 18 Norte 28 Noroeste 0 -- -- --
2020-06-14 23:00:00 16.2 22 Norte 36 Norte 0 -- -- --
2020-06-14 22:00:00 16.9 21 Norte 33 Norte 0 -- -- --
2020-06-14 21:00:00 17.9 20 Norte 35 Norte 0 -- -- --
2020-06-14 20:00:00 19.2 22 Norte 35 Norte 0 -- -- --
2020-06-14 19:00:00 22.1 15 Noroeste 25 Noroeste 0 -- -- --
2020-06-14 18:00:00 22.8 16 Noroeste 32 Noroeste 0 -- -- --
2020-06-14 17:00:00 23.5 10 Noroeste 27 Oeste 0 -- -- --
2020-06-14 16:00:00 24.3 8 Oeste 24 Oeste 0 -- -- --
2020-06-14 15:00:00 23.3 5 Sudoeste 18 Oeste 0 -- -- --
2020-06-14 14:00:00 22.1 5 Noroeste 19 Sudeste 0 -- -- --
2020-06-14 13:00:00 23 8 Sudeste 19 Sur 0 -- -- --
2020-06-14 12:00:00 20.4 3 Noroeste 12 Noroeste 0 -- -- --
2020-06-14 11:00:00 18.5 4 Noroeste 9 Noroeste 0 -- -- --
2020-06-14 10:00:00 16.2 4 Noroeste 8 Noroeste 0 -- -- --
2020-06-14 09:00:00 13.8 3 Noroeste 7 Oeste 0 -- -- --
2020-06-14 08:00:00 12.2 5 Oeste 12 Norte 0 -- -- --
2020-06-14 07:00:00 11.2 9 Noroeste 12 Noroeste 0 -- -- --
2020-06-14 06:00:00 11.6 6 Noroeste 12 Noroeste 0 -- -- --
2020-06-14 05:00:00 12.1 8 Noroeste 12 Noroeste 0 -- -- --
2020-06-14 04:00:00 12.6 9 Noroeste 13 Norte 0 -- -- --
2020-06-14 03:00:00 12.5 4 Noroeste 12 Norte 0 -- -- --
2020-06-14 02:00:00 13.3 9 Norte 21 Norte 0 -- -- --
2020-06-14 01:00:00 13.7 12 Norte 30 Norte 0 -- -- --
2020-06-14 00:00:00 14.7 19 Norte 40 Norte 0 -- -- --
2020-06-13 23:00:00 15.4 19 Norte 31 Norte 0 -- -- --
2020-06-13 22:00:00 16.5 17 Norte 25 Norte 0 -- -- --
2020-06-13 21:00:00 19.5 11 Noroeste 32 Oeste 0 -- -- --
2020-06-13 20:00:00 22.3 15 Oeste 27 Oeste 0 -- -- --
2020-06-13 19:00:00 22.5 13 Noroeste 36 Noroeste 0 -- -- --
2020-06-13 18:00:00 22.3 13 Oeste 29 Oeste 0 -- -- --
2020-06-13 17:00:00 21.1 15 Oeste 33 Noroeste 0 -- -- --
2020-06-13 16:00:00 21.4 18 Noroeste 32 Oeste 0 -- -- --
2020-06-13 15:00:00 21.7 19 Oeste 36 Oeste 0 -- -- --
2020-06-13 14:00:00 21.9 17 Oeste 37 Oeste 0 -- -- --
2020-06-13 13:00:00 21 17 Sudoeste 36 Oeste 0 -- -- --
2020-06-13 12:00:00 19.2 15 Oeste 41 Oeste 0 -- -- --
2020-06-13 11:00:00 17.2 21 Oeste 43 Oeste 0 -- -- --
2020-06-13 10:00:00 15.8 5 Sudeste 11 Oeste 0 -- -- --
2020-06-13 09:00:00 13 2 Oeste 4 Oeste 0 -- -- --
2020-06-13 08:00:00 11.6 0 Calma 6 Sudoeste 0 -- -- --
2020-06-13 07:00:00 10.9 2 Noroeste 8 Sudoeste 0 -- -- --
2020-06-13 06:00:00 10.5 6 Noroeste 14 Noroeste 0 -- -- --
2020-06-13 05:00:00 10.3 3 Noroeste 10 Noroeste 0 -- -- --
2020-06-13 04:00:00 10.5 4 Norte 9 Noroeste 0 -- -- --
2020-06-13 03:00:00 10.6 3 Sudeste 7 Noroeste 0 -- -- --
2020-06-13 02:00:00 11.5 5 Este 11 Sudeste 0 -- -- --
2020-06-13 01:00:00 11.6 3 Sudeste 12 Sudeste 0 -- -- --
2020-06-13 00:00:00 11.9 4 Noroeste 10 Sudeste 0 -- -- --
2020-06-12 23:00:00 12.9 2 Sudeste 12 Sudeste 0.2 -- -- --
2020-06-12 22:00:00 13.3 4 Este 9 Nordeste 0 -- -- --
2020-06-12 21:00:00 13.8 3 Sur 10 Oeste 0 -- -- --
2020-06-12 20:00:00 14.7 7 Noroeste 36 Oeste 0 -- -- --
2020-06-12 19:00:00 16.1 17 Oeste 24 Oeste 0 -- -- --
2020-06-12 18:00:00 14.9 6 Sur 42 Sur 1.2 -- -- --
2020-06-12 17:00:00 20 18 Sudeste 40 Sur 0 -- -- --
2020-06-12 16:00:00 20.3 23 Sur 32 Sudeste 0 -- -- --
2020-06-12 15:00:00 19.9 15 Sudeste 30 Sur 0 -- -- --
2020-06-12 14:00:00 18.9 14 Sur 34 Sudeste 0 -- -- --
2020-06-12 13:00:00 17.9 15 Sur 35 Sudeste 0 -- -- --
2020-06-12 12:00:00 15.7 10 Sudeste 17 Sudeste 0 -- -- --
2020-06-12 11:00:00 11.6 7 Noroeste 10 Noroeste 0 -- -- --
2020-06-12 10:00:00 9.8 4 Nordeste 6 Nordeste 0 -- -- --
2020-06-12 09:00:00 8.5 2 Oeste 9 Noroeste 0 -- -- --
2020-06-12 08:00:00 7.3 4 Noroeste 9 Norte 0 -- -- --
2020-06-12 07:00:00 5.5 5 Noroeste 10 Noroeste 0 -- -- --
2020-06-12 06:00:00 5.8 4 Noroeste 10 Norte 0 -- -- --
2020-06-12 05:00:00 6.6 2 Noroeste 9 Sur 0.2 -- -- --
2020-06-12 04:00:00 7.3 2 Noroeste 8 Nordeste 0 -- -- --
2020-06-12 03:00:00 7.6 5 Norte 9 Noroeste 0 -- -- --
2020-06-12 02:00:00 8.1 4 Noroeste 7 Oeste 0 -- -- --
2020-06-12 01:00:00 9.2 4 Noroeste 21 Noroeste 0 -- -- --
2020-06-12 00:00:00 9.8 10 Norte 23 Noroeste 0 -- -- --